createdAt,value
2018-02-17T00:00:48.255Z,8.40
2018-02-17T00:03:15.819Z,8.60
2018-02-17T00:05:43.348Z,9.27
2018-02-17T00:08:11.668Z,9.50
2018-02-17T00:10:39.203Z,9.17
2018-02-17T00:13:06.771Z,8.50
2018-02-17T00:15:34.302Z,9.43
2018-02-17T00:18:01.868Z,9.43
2018-02-17T00:20:30.172Z,8.10
2018-02-17T00:22:57.730Z,8.30
2018-02-17T00:25:25.263Z,7.20
2018-02-17T00:27:52.848Z,7.93
2018-02-17T00:30:20.455Z,8.90
2018-02-17T00:32:48.021Z,8.53
2018-02-17T00:35:15.555Z,7.13
2018-02-17T00:37:43.111Z,8.43
2018-02-17T00:40:10.652Z,7.63
2018-02-17T00:42:38.973Z,6.80
2018-02-17T00:45:06.504Z,7.43
2018-02-17T00:47:34.065Z,7.03
2018-02-17T00:50:01.598Z,7.67
2018-02-17T00:52:29.158Z,7.30
2018-02-17T00:54:56.685Z,6.70
2018-02-17T00:57:24.235Z,6.70
2018-02-17T00:59:51.776Z,6.87
2018-02-17T01:02:19.335Z,5.90
2018-02-17T01:04:46.870Z,6.57
2018-02-17T01:07:15.196Z,6.67
2018-02-17T01:09:42.744Z,5.33
2018-02-17T01:12:10.281Z,5.20
2018-02-17T01:14:38.599Z,5.10
2018-02-17T01:17:06.127Z,4.70
2018-02-17T01:19:33.678Z,5.33
2018-02-17T01:22:01.970Z,5.50
2018-02-17T01:24:29.522Z,4.70
2018-02-17T01:26:57.814Z,5.70
2018-02-17T01:29:25.366Z,4.53
2018-02-17T01:31:52.903Z,4.30
2018-02-17T01:34:20.460Z,4.70
2018-02-17T01:36:47.989Z,5.07
2018-02-17T01:39:15.539Z,6.10
2018-02-17T01:41:43.071Z,4.97
2018-02-17T01:44:10.623Z,5.10
2018-02-17T01:46:38.924Z,4.90
2018-02-17T01:49:06.474Z,4.40
2018-02-17T01:51:34.002Z,4.40
2018-02-17T01:54:01.558Z,4.67
2018-02-17T01:56:29.095Z,4.37
2018-02-17T01:58:56.649Z,4.53
2018-02-17T02:01:24.173Z,4.70
2018-02-17T02:03:51.720Z,4.07
2018-02-17T02:06:20.018Z,4.37
2018-02-17T02:08:47.574Z,5.30
2018-02-17T02:11:15.106Z,3.73
2018-02-17T02:13:43.423Z,4.43
2018-02-17T02:16:10.946Z,4.73
2018-02-17T02:18:39.243Z,4.63
2018-02-17T02:21:06.794Z,4.20
2018-02-17T02:23:35.087Z,4.70
2018-02-17T02:26:02.645Z,4.50
2018-02-17T02:28:30.178Z,4.80
2018-02-17T02:30:58.509Z,4.23
2018-02-17T02:33:26.041Z,4.80
2018-02-17T02:35:53.590Z,4.60
2018-02-17T02:38:21.136Z,4.10
2018-02-17T02:40:49.466Z,4.70
2018-02-17T02:43:16.996Z,4.67
2018-02-17T02:45:44.554Z,4.57
2018-02-17T02:48:12.093Z,4.97
2018-02-17T02:50:40.415Z,4.00
2018-02-17T02:53:07.942Z,4.80
2018-02-17T02:55:36.269Z,4.97
2018-02-17T02:58:03.804Z,5.50
2018-02-17T03:00:31.369Z,6.07
2018-02-17T03:02:58.902Z,5.50
2018-02-17T03:05:27.190Z,5.47
2018-02-17T03:07:54.740Z,5.20
2018-02-17T03:10:22.278Z,5.90
2018-02-17T03:12:49.822Z,4.60
2018-02-17T03:15:17.354Z,5.47
2018-02-17T03:17:44.910Z,5.43
2018-02-17T03:20:12.443Z,5.77
2018-02-17T03:22:40.004Z,7.13
2018-02-17T03:25:07.543Z,6.33
2018-02-17T03:27:35.878Z,6.73
2018-02-17T03:30:03.417Z,6.33
2018-02-17T03:32:30.970Z,7.80
2018-02-17T03:34:58.506Z,7.30
2018-02-17T03:37:26.816Z,7.53
2018-02-17T03:39:54.353Z,6.60
2018-02-17T03:42:21.906Z,7.17
2018-02-17T03:44:50.198Z,7.60
2018-02-17T03:47:17.763Z,7.30
2018-02-17T03:49:45.289Z,7.43
2018-02-17T03:52:13.591Z,7.50
2018-02-17T03:54:41.147Z,7.73
2018-02-17T03:57:08.678Z,7.20
2018-02-17T03:59:36.247Z,8.33
2018-02-17T04:02:04.542Z,7.57
2018-02-17T04:04:32.101Z,7.10
2018-02-17T04:06:59.636Z,8.77
2018-02-17T04:09:27.974Z,8.27
2018-02-17T04:11:55.506Z,8.40
2018-02-17T04:14:23.054Z,8.53
2018-02-17T04:16:51.346Z,8.10
2018-02-17T04:19:18.902Z,9.43
2018-02-17T04:21:46.433Z,8.27
2018-02-17T04:24:14.770Z,8.13
2018-02-17T04:26:42.302Z,9.00
2018-02-17T04:29:09.855Z,8.10
2018-02-17T04:31:37.396Z,8.40
2018-02-17T04:34:05.715Z,9.30
2018-02-17T04:36:33.249Z,8.10
2018-02-17T04:39:00.802Z,10.03
2018-02-17T04:41:34.791Z,9.77
2018-02-17T04:47:11.618Z,9.10
2018-02-17T04:49:39.599Z,8.07
2018-02-17T04:52:10.828Z,8.43
2018-02-17T04:54:55.179Z,10.20
2018-02-17T04:57:23.182Z,9.37
2018-02-17T05:00:06.437Z,8.77
2018-02-17T05:02:46.858Z,8.87
2018-02-17T05:05:20.170Z,9.57
2018-02-17T05:07:49.606Z,9.13
2018-02-17T05:10:17.155Z,8.93
2018-02-17T05:12:44.681Z,9.40
2018-02-17T05:15:23.073Z,8.43
2018-02-17T05:18:06.401Z,8.73
2018-02-17T05:20:37.786Z,10.20
2018-02-17T05:23:05.329Z,10.57
2018-02-17T05:25:35.489Z,10.63
2018-02-17T05:28:03.044Z,9.83
2018-02-17T05:30:31.104Z,9.97
2018-02-17T05:33:04.460Z,10.20
2018-02-17T05:35:41.950Z,12.07
2018-02-17T05:38:09.481Z,10.70
2018-02-17T05:40:42.746Z,10.80
2018-02-17T05:43:10.287Z,10.67
2018-02-17T05:45:41.527Z,11.67
2018-02-17T05:48:09.546Z,11.00
2018-02-17T05:50:37.114Z,12.37
2018-02-17T05:53:05.420Z,11.90
2018-02-17T05:55:32.982Z,11.37
2018-02-17T05:58:00.530Z,12.50
2018-02-17T06:00:28.087Z,11.07
2018-02-17T06:02:55.620Z,11.93
2018-02-17T06:05:23.942Z,14.03
2018-02-17T06:07:51.465Z,13.67
2018-02-17T06:10:19.794Z,14.00
2018-02-17T06:12:47.328Z,14.07
2018-02-17T06:15:14.881Z,14.37
2018-02-17T06:17:42.407Z,15.10
2018-02-17T06:20:09.947Z,13.40
2018-02-17T06:22:37.502Z,14.97
2018-02-17T06:25:05.042Z,14.17
2018-02-17T06:27:32.598Z,15.57
2018-02-17T06:30:00.125Z,13.90
2018-02-17T06:54:03.534Z,15.80
2018-02-17T06:56:31.098Z,16.80
2018-02-17T06:58:58.626Z,18.30
2018-02-17T07:01:29.966Z,16.63
2018-02-17T07:03:57.497Z,17.50
2018-02-17T07:06:25.819Z,17.20
2018-02-17T07:08:53.347Z,17.97
2018-02-17T07:11:20.907Z,18.30
2018-02-17T07:13:48.446Z,15.77
2018-02-17T07:16:16.776Z,18.27
2018-02-17T07:18:44.328Z,19.03
2018-02-17T07:21:11.882Z,19.23
2018-02-17T07:23:39.411Z,18.97
2018-02-17T07:26:06.979Z,18.13
2018-02-17T07:28:34.507Z,19.17
2018-02-17T07:31:02.835Z,19.47
2018-02-17T07:33:30.381Z,18.40
2018-02-17T07:35:57.917Z,18.40
2018-02-17T07:38:26.232Z,18.53
2018-02-17T07:40:53.763Z,18.43
2018-02-17T07:43:21.315Z,19.57
2018-02-17T07:45:49.610Z,19.00
2018-02-17T07:48:17.162Z,19.03
2018-02-17T07:50:44.694Z,19.30
2018-02-17T07:53:12.249Z,18.00
2018-02-17T07:55:39.785Z,18.23
2018-02-17T07:58:07.338Z,19.67
2018-02-17T08:00:34.858Z,17.50
2018-02-17T08:03:03.174Z,17.20
2018-02-17T08:05:30.699Z,18.77
2018-02-17T08:07:58.242Z,19.53
2018-02-17T08:10:26.530Z,20.60
2018-02-17T08:12:54.850Z,19.90
2018-02-17T08:15:22.382Z,20.03
2018-02-17T08:17:49.942Z,21.20
2018-02-17T08:20:17.488Z,19.03
2018-02-17T08:22:45.047Z,18.33
2018-02-17T08:25:12.588Z,18.50
2018-02-17T08:27:40.923Z,20.03
2018-02-17T08:30:08.462Z,20.37
2018-02-17T08:32:36.029Z,21.57
2018-02-17T08:35:03.560Z,19.00
2018-02-17T08:37:31.881Z,20.30
2018-02-17T08:39:59.402Z,21.70
2018-02-17T08:42:27.714Z,18.93
2018-02-17T08:44:55.238Z,20.47
2018-02-17T08:47:23.563Z,18.90
2018-02-17T08:49:51.103Z,17.53
2018-02-17T08:52:18.670Z,19.65
2018-02-17T08:54:46.206Z,19.10
2018-02-17T08:57:13.767Z,18.90
2018-02-17T08:59:41.301Z,19.20
2018-02-17T09:02:08.887Z,18.50
2018-02-17T09:04:36.416Z,16.83
2018-02-17T09:07:03.975Z,18.30
2018-02-17T09:09:31.514Z,17.60
2018-02-17T09:11:59.071Z,15.53
2018-02-17T09:14:26.606Z,16.67
2018-02-17T09:16:54.136Z,15.60
2018-02-17T09:19:21.691Z,15.60
2018-02-17T09:21:49.231Z,16.80
2018-02-17T09:24:16.790Z,16.40
2018-02-17T09:26:44.318Z,15.77
2018-02-17T09:29:11.871Z,17.70
2018-02-17T09:31:39.405Z,17.50
2018-02-17T09:34:06.967Z,15.00
2018-02-17T09:36:34.489Z,16.53
2018-02-17T09:39:02.821Z,17.17
2018-02-17T09:41:30.350Z,15.20
2018-02-17T09:43:57.904Z,15.80
2018-02-17T09:46:26.201Z,17.67
2018-02-17T09:48:53.749Z,19.27
2018-02-17T09:51:21.278Z,19.43
2018-02-17T09:53:49.609Z,18.73
2018-02-17T09:56:17.147Z,21.33
2018-02-17T09:58:44.699Z,23.87
2018-02-17T10:01:12.993Z,23.60
2018-02-17T10:03:40.567Z,26.37
2018-02-17T10:06:08.121Z,24.20
2018-02-17T10:08:35.688Z,23.95
2018-02-17T10:11:03.223Z,25.80
2018-02-17T10:13:30.785Z,26.70
2018-02-17T10:15:58.336Z,24.33
2018-02-17T10:18:25.900Z,25.87
2018-02-17T10:20:53.443Z,26.03
2018-02-17T10:23:21.766Z,25.50
2018-02-17T10:25:49.299Z,26.13
2018-02-17T10:28:16.863Z,24.30
2018-02-17T10:30:44.390Z,23.33
2018-02-17T10:33:11.952Z,24.50
2018-02-17T10:35:40.268Z,26.10
2018-02-17T10:38:07.826Z,23.33
2018-02-17T10:40:35.360Z,24.87
2018-02-17T10:43:03.683Z,24.23
2018-02-17T10:45:31.210Z,24.03
2018-02-17T10:47:58.763Z,24.17
2018-02-17T10:50:27.062Z,22.73
2018-02-17T10:52:54.623Z,19.90
2018-02-17T10:55:27.901Z,19.00
2018-02-17T10:57:56.227Z,19.83
2018-02-17T11:00:23.763Z,18.50
2018-02-17T11:02:51.313Z,19.33
2018-02-17T11:05:18.847Z,19.03
2018-02-17T11:07:47.175Z,20.43
2018-02-17T11:10:14.714Z,22.93
2018-02-17T11:12:42.263Z,20.20
2018-02-17T11:15:09.792Z,20.87
2018-02-17T11:17:37.351Z,19.77
2018-02-17T11:20:05.659Z,19.43
2018-02-17T11:22:33.220Z,19.27
2018-02-17T11:25:00.755Z,18.20
2018-02-17T11:27:29.075Z,19.77
2018-02-17T11:29:56.607Z,16.97
2018-02-17T11:32:24.143Z,15.13
2018-02-17T11:34:51.699Z,14.27
2018-02-17T11:37:19.241Z,14.73
2018-02-17T11:39:46.806Z,15.60
2018-02-17T11:42:14.339Z,14.97
2018-02-17T11:44:41.890Z,14.30
2018-02-17T11:47:09.417Z,14.27
2018-02-17T11:49:37.730Z,14.07
2018-02-17T11:52:05.267Z,14.63
2018-02-17T11:54:32.825Z,13.40
2018-02-17T11:57:00.355Z,14.30
2018-02-17T11:59:27.916Z,13.33
2018-02-17T12:01:55.457Z,12.93
2018-02-17T12:04:23.022Z,11.60
2018-02-17T12:06:50.551Z,11.90
2018-02-17T12:09:18.111Z,11.60
2018-02-17T12:11:45.655Z,11.23
2018-02-17T12:14:13.218Z,12.47
2018-02-17T12:16:40.756Z,9.57
2018-02-17T12:19:09.074Z,10.53
2018-02-17T12:21:36.606Z,12.37
2018-02-17T12:24:04.170Z,9.30
2018-02-17T12:26:31.707Z,8.43
2018-02-17T12:29:00.035Z,10.90
2018-02-17T12:31:27.567Z,9.30
2018-02-17T12:33:55.126Z,10.57
2018-02-17T12:36:22.660Z,11.23
2018-02-17T12:38:50.983Z,10.23
2018-02-17T12:41:18.511Z,11.33
2018-02-17T12:43:46.066Z,9.97
2018-02-17T12:46:13.606Z,11.77
2018-02-17T12:48:41.163Z,12.30
2018-02-17T12:51:08.691Z,10.50
2018-02-17T12:53:36.246Z,11.20
2018-02-17T12:56:03.774Z,10.40
2018-02-17T12:58:31.343Z,11.53
2018-02-17T13:00:58.874Z,12.83
2018-02-17T13:03:27.194Z,12.00
2018-02-17T13:05:54.722Z,13.43
2018-02-17T13:08:22.292Z,13.37
2018-02-17T13:10:49.822Z,12.40
2018-02-17T13:13:18.147Z,12.67
2018-02-17T13:15:45.678Z,11.43
2018-02-17T13:18:13.246Z,13.07
2018-02-17T13:20:40.770Z,12.60
2018-02-17T13:23:08.321Z,12.13
2018-02-17T13:25:35.851Z,12.23
2018-02-17T13:28:03.411Z,12.23
2018-02-17T13:30:30.950Z,14.70
2018-02-17T13:32:58.506Z,12.67
2018-02-17T13:35:26.039Z,12.90
2018-02-17T13:37:54.338Z,11.80
2018-02-17T13:40:21.890Z,12.70
2018-02-17T13:42:49.428Z,12.50
2018-02-17T13:45:16.986Z,12.90
2018-02-17T13:47:44.527Z,11.77
2018-02-17T13:50:12.081Z,13.40
2018-02-17T13:52:39.611Z,12.50
2018-02-17T13:55:07.161Z,14.43
2018-02-17T13:57:34.687Z,14.33
2018-02-17T14:00:03.010Z,14.13
2018-02-17T14:02:30.536Z,14.70
2018-02-17T14:04:58.857Z,13.90
2018-02-17T14:07:26.385Z,14.70
2018-02-17T14:09:53.948Z,16.00
2018-02-17T14:12:21.487Z,17.93
2018-02-17T14:14:49.822Z,19.90
2018-02-17T14:17:17.355Z,17.60
2018-02-17T14:19:44.916Z,19.60
2018-02-17T14:22:12.457Z,20.70
2018-02-17T14:24:40.779Z,17.00
2018-02-17T14:27:08.316Z,20.47
2018-02-17T14:29:35.874Z,20.03
2018-02-17T14:32:03.410Z,19.47
2018-02-17T14:34:31.740Z,22.10
2018-02-17T14:36:59.623Z,18.60
2018-02-17T14:39:27.179Z,21.80
2018-02-17T14:41:54.723Z,21.77
2018-02-17T14:44:23.044Z,19.67
2018-02-17T14:46:51.341Z,21.37
2018-02-17T14:49:18.894Z,22.80
2018-02-17T14:51:47.182Z,20.17
2018-02-17T14:54:14.735Z,20.10
2018-02-17T14:56:42.330Z,21.30
2018-02-17T14:59:09.886Z,20.07
2018-02-17T15:01:37.416Z,19.70
2018-02-17T15:04:04.974Z,18.40
2018-02-17T15:06:32.543Z,19.30
2018-02-17T15:09:00.837Z,20.17
2018-02-17T15:11:28.375Z,19.37
2018-02-17T15:13:55.933Z,20.40
2018-02-17T15:16:23.479Z,20.60
2018-02-17T15:18:51.810Z,23.67
2018-02-17T15:21:19.348Z,22.33
2018-02-17T15:23:46.913Z,22.97
2018-02-17T15:26:14.452Z,25.23
2018-02-17T15:28:42.014Z,24.03
2018-02-17T15:31:09.542Z,24.60
2018-02-17T15:33:37.102Z,24.73
2018-02-17T15:36:04.630Z,23.90
2018-02-17T15:38:32.189Z,22.57
2018-02-17T15:40:59.725Z,22.97
2018-02-17T15:43:27.256Z,23.33
2018-02-17T15:45:55.588Z,21.90
2018-02-17T15:48:23.125Z,22.40
2018-02-17T15:50:50.686Z,19.03
2018-02-17T15:53:18.225Z,20.83
2018-02-17T15:55:45.788Z,20.93
2018-02-17T15:58:13.322Z,20.80
2018-02-17T16:00:41.646Z,21.13
2018-02-17T16:03:09.181Z,21.07
2018-02-17T16:05:36.736Z,20.77
2018-02-17T16:08:04.266Z,18.67
2018-02-17T16:10:31.819Z,20.50
2018-02-17T16:12:59.358Z,16.87
2018-02-17T16:15:26.906Z,18.73
2018-02-17T16:17:54.448Z,16.13
2018-02-17T16:20:22.012Z,17.10
2018-02-17T16:22:49.551Z,17.47
2018-02-17T16:25:17.107Z,16.07
2018-02-17T16:27:44.646Z,19.23
2018-02-17T16:30:12.198Z,16.43
2018-02-17T16:32:39.727Z,15.43
2018-02-17T16:35:07.285Z,16.80
2018-02-17T16:37:34.827Z,17.80
2018-02-17T16:40:02.379Z,17.43
2018-02-17T16:42:29.908Z,18.10
2018-02-17T16:44:57.463Z,18.40
2018-02-17T16:47:24.995Z,19.40
2018-02-17T16:49:52.552Z,18.03
2018-02-17T16:52:20.094Z,18.70
2018-02-17T16:54:47.655Z,17.00
2018-02-17T16:57:15.193Z,17.90
2018-02-17T16:59:42.751Z,16.50
2018-02-17T17:02:10.282Z,16.23
2018-02-17T17:04:38.607Z,15.00
2018-02-17T17:07:06.147Z,15.80
2018-02-17T17:09:33.710Z,17.00
2018-02-17T17:12:01.247Z,16.30
2018-02-17T17:14:29.572Z,18.63
2018-02-17T17:16:57.106Z,17.23
2018-02-17T17:19:24.666Z,16.83
2018-02-17T17:21:52.223Z,17.07
2018-02-17T17:24:19.795Z,16.03
2018-02-17T17:26:47.322Z,16.77
2018-02-17T17:29:15.647Z,16.57
2018-02-17T17:31:43.181Z,17.40
2018-02-17T17:34:10.739Z,16.53
2018-02-17T17:36:38.273Z,16.83
2018-02-17T17:39:05.835Z,17.33
2018-02-17T17:41:33.371Z,16.83
2018-02-17T17:44:00.943Z,16.33
2018-02-17T17:46:28.482Z,19.07
2018-02-17T17:48:56.036Z,19.33
2018-02-17T17:51:23.598Z,19.43
2018-02-17T17:53:51.132Z,17.73
2018-02-17T17:56:18.682Z,20.00
2018-02-17T17:58:46.210Z,21.40
2018-02-17T18:01:14.537Z,19.90
2018-02-17T18:03:42.067Z,23.20
2018-02-17T18:06:10.422Z,22.57
2018-02-17T18:08:37.960Z,24.30
2018-02-17T18:11:05.523Z,22.00
2018-02-17T18:13:33.062Z,21.17
2018-02-17T18:16:00.623Z,20.27
2018-02-17T18:18:28.162Z,20.20
2018-02-17T18:20:55.737Z,20.40
2018-02-17T18:23:23.275Z,19.90
2018-02-17T18:25:50.830Z,19.37
2018-02-17T18:28:18.362Z,19.67
2018-02-17T18:30:45.923Z,19.93
2018-02-17T18:33:14.234Z,19.67
2018-02-17T18:35:41.790Z,18.17
2018-02-17T18:38:09.317Z,20.50
2018-02-17T18:40:36.870Z,19.13
2018-02-17T18:43:04.494Z,19.47
2018-02-17T18:45:32.071Z,19.80
2018-02-17T18:47:59.614Z,18.70
2018-02-17T18:50:27.159Z,18.13
2018-02-17T18:52:54.696Z,18.40
2018-02-17T18:55:23.014Z,18.37
2018-02-17T18:57:50.547Z,18.73
2018-02-17T19:00:18.098Z,17.03
2018-02-17T19:02:45.631Z,18.87
2018-02-17T19:05:13.183Z,19.50
2018-02-17T19:07:40.711Z,21.10
2018-02-17T19:10:08.266Z,20.30
2018-02-17T19:12:35.807Z,21.60
2018-02-17T19:15:03.366Z,20.17
2018-02-17T19:17:30.902Z,19.33
2018-02-17T19:19:59.227Z,19.43
2018-02-17T19:22:26.763Z,20.50
2018-02-17T19:24:54.317Z,20.97
2018-02-17T19:27:21.846Z,22.50
2018-02-17T19:29:49.406Z,21.10
2018-02-17T19:34:51.014Z,21.37
2018-02-17T19:37:18.546Z,20.57
2018-02-17T19:39:46.874Z,22.23
2018-02-17T19:42:14.409Z,19.93
2018-02-17T19:44:43.159Z,23.20
2018-02-17T19:47:11.636Z,20.30
2018-02-17T19:49:39.211Z,22.27
2018-02-17T19:52:07.511Z,22.80
2018-02-17T19:54:35.054Z,20.67
2018-02-17T19:57:03.367Z,21.27
2018-02-17T19:59:30.908Z,20.97
2018-02-17T20:01:58.566Z,20.20
2018-02-17T20:04:26.103Z,20.03
2018-02-17T20:06:54.430Z,19.13
2018-02-17T20:09:21.964Z,19.73
2018-02-17T20:11:49.629Z,19.40
2018-02-17T20:14:17.172Z,18.80
2018-02-17T20:16:45.507Z,21.03
2018-02-17T20:19:13.043Z,21.10
2018-02-17T20:21:40.603Z,19.93
2018-02-17T20:24:08.170Z,21.83
2018-02-17T20:26:35.734Z,20.30
2018-02-17T20:29:03.306Z,20.60
2018-02-17T20:31:30.899Z,21.73
2018-02-17T20:33:58.439Z,19.80
2018-02-17T20:36:25.994Z,22.77
2018-02-17T20:38:53.527Z,19.60
2018-02-17T20:41:21.091Z,20.97
2018-02-17T20:43:48.636Z,19.37
2018-02-17T20:46:16.194Z,20.33
2018-02-17T20:48:43.744Z,19.93
2018-02-17T20:51:11.320Z,19.20
2018-02-17T20:53:38.854Z,21.67
2018-02-17T20:56:07.181Z,21.47
2018-02-17T20:58:34.747Z,19.77
2018-02-17T21:01:02.310Z,19.87
2018-02-17T21:03:29.847Z,21.40
2018-02-17T21:05:57.404Z,20.90
2018-02-17T21:08:24.937Z,20.10
2018-02-17T21:10:52.502Z,21.13
2018-02-17T21:13:20.039Z,21.30
2018-02-17T21:15:48.367Z,20.50
2018-02-17T21:18:15.899Z,19.90
2018-02-17T21:20:43.459Z,21.07
2018-02-17T21:23:11.003Z,18.10
2018-02-17T21:25:38.574Z,20.98
2018-02-17T21:28:06.382Z,20.63
2018-02-17T21:30:33.942Z,20.03
2018-02-17T21:33:01.474Z,21.13
2018-02-17T21:35:29.039Z,19.93
2018-02-17T21:37:56.582Z,19.80
2018-02-17T21:40:24.144Z,20.30
2018-02-17T21:42:51.678Z,18.53
2018-02-17T21:45:20.002Z,19.90
2018-02-17T21:47:47.534Z,18.50
2018-02-17T21:50:15.098Z,19.00
2018-02-17T21:52:42.640Z,20.80
2018-02-17T21:55:10.981Z,17.77
2018-02-17T21:57:38.535Z,19.97
2018-02-17T22:00:06.094Z,20.57
2018-02-17T22:02:33.631Z,21.37
2018-02-17T22:05:01.170Z,19.45
2018-02-17T22:07:28.738Z,22.25
2018-02-17T22:09:56.273Z,21.33
2018-02-17T22:12:24.661Z,21.05
2018-02-17T22:14:52.176Z,21.90
2018-02-17T22:17:19.740Z,22.17
2018-02-17T22:19:47.282Z,23.55
2018-02-17T22:22:14.850Z,23.77
2018-02-17T22:24:42.405Z,25.55
2018-02-17T22:27:09.975Z,27.58
2018-02-17T22:29:37.517Z,25.77
2018-02-17T22:32:05.082Z,25.88
2018-02-17T22:34:32.622Z,24.58
2018-02-17T22:37:00.188Z,27.95
2018-02-17T22:39:27.734Z,27.00
2018-02-17T22:41:55.298Z,24.17
2018-02-17T22:44:22.841Z,23.65
2018-02-17T22:46:50.407Z,23.85
2018-02-17T22:49:17.941Z,25.77
2018-02-17T22:51:46.283Z,25.37
2018-02-17T22:54:13.824Z,26.80
2018-02-17T22:56:41.393Z,25.43
2018-02-17T22:59:08.927Z,25.30
2018-02-17T23:01:36.504Z,26.70
2018-02-17T23:04:04.040Z,25.73
2018-02-17T23:06:31.612Z,28.23
2018-02-17T23:08:59.155Z,25.20
2018-02-17T23:11:26.719Z,24.90
2018-02-17T23:13:54.266Z,26.73
2018-02-17T23:16:22.596Z,26.62
2018-02-17T23:18:50.145Z,23.35
2018-02-17T23:21:17.711Z,22.87
2018-02-17T23:23:45.253Z,20.48
2018-02-17T23:26:12.816Z,22.83
2018-02-17T23:28:40.349Z,20.77
2018-02-17T23:31:08.678Z,23.23
2018-02-17T23:33:36.223Z,23.90
2018-02-17T23:36:03.787Z,24.37
2018-02-17T23:38:31.322Z,23.65
2018-02-17T23:40:58.896Z,21.60
2018-02-17T23:43:26.447Z,22.08
2018-02-17T23:45:54.012Z,26.03
2018-02-17T23:48:21.550Z,24.40
2018-02-17T23:50:49.122Z,23.75
2018-02-17T23:53:16.667Z,24.85
2018-02-17T23:55:44.999Z,24.12
2018-02-17T23:58:12.552Z,25.83
